createdAt,value
2022-08-19T00:02:20.422Z,17.73
2022-08-19T00:04:49.539Z,17.52
2022-08-19T00:07:17.241Z,17.45
2022-08-19T00:09:46.468Z,17.90
2022-08-19T00:12:14.576Z,17.65
2022-08-19T00:14:42.275Z,17.80
2022-08-19T00:17:10.786Z,17.75
2022-08-19T00:19:38.692Z,17.73
2022-08-19T00:22:07.176Z,17.63
2022-08-19T00:24:35.542Z,18.13
2022-08-19T00:27:26.238Z,17.67
2022-08-19T00:29:52.952Z,16.77
2022-08-19T00:32:20.856Z,18.73
2022-08-19T00:34:48.518Z,18.55
2022-08-19T00:37:16.236Z,19.55
2022-08-19T00:39:43.954Z,18.70
2022-08-19T00:42:16.531Z,19.05
2022-08-19T00:44:44.285Z,18.27
2022-08-19T00:47:14.207Z,18.23
2022-08-19T00:49:46.580Z,18.42
2022-08-19T00:54:43.904Z,19.02
2022-08-19T00:57:14.663Z,18.85
2022-08-19T01:00:01.092Z,18.23
2022-08-19T01:02:32.020Z,18.52
2022-08-19T01:04:59.921Z,17.85
2022-08-19T01:07:27.605Z,19.00
2022-08-19T01:09:55.839Z,17.25
2022-08-19T01:12:25.087Z,18.83
2022-08-19T01:14:53.556Z,18.48
2022-08-19T01:17:21.519Z,18.02
2022-08-19T01:19:49.375Z,18.33
2022-08-19T01:22:28.789Z,18.27
2022-08-19T01:25:00.693Z,17.73
2022-08-19T01:27:29.576Z,17.70
2022-08-19T01:30:09.716Z,17.95
2022-08-19T01:32:37.517Z,19.10
2022-08-19T01:35:05.941Z,16.55
2022-08-19T01:37:44.758Z,17.42
2022-08-19T01:40:14.042Z,17.05
2022-08-19T01:42:42.105Z,17.85
2022-08-19T01:45:10.475Z,18.40
2022-08-19T01:47:38.671Z,18.13
2022-08-19T01:50:08.097Z,17.77
2022-08-19T01:52:37.961Z,17.08
2022-08-19T01:55:07.428Z,16.92
2022-08-19T01:57:36.550Z,16.15
2022-08-19T02:00:08.016Z,15.43
2022-08-19T02:02:35.665Z,16.15
2022-08-19T02:05:03.385Z,15.85
2022-08-19T02:07:31.070Z,15.48
2022-08-19T02:09:58.747Z,15.55
2022-08-19T02:12:30.795Z,15.93
2022-08-19T02:15:00.646Z,15.43
2022-08-19T02:17:29.830Z,15.07
2022-08-19T02:19:58.282Z,15.65
2022-08-19T02:22:26.485Z,14.40
2022-08-19T02:24:54.369Z,14.55
2022-08-19T02:27:22.109Z,14.88
2022-08-19T02:29:51.156Z,14.82
2022-08-19T02:32:20.894Z,15.13
2022-08-19T02:34:48.741Z,15.15
2022-08-19T02:37:30.493Z,15.52
2022-08-19T02:40:03.360Z,15.48
2022-08-19T02:42:41.717Z,14.95
2022-08-19T02:45:10.254Z,15.23
2022-08-19T02:47:39.337Z,15.48
2022-08-19T02:50:08.435Z,15.57
2022-08-19T02:52:36.460Z,15.88
2022-08-19T02:55:04.784Z,15.57
2022-08-19T02:57:33.421Z,15.40
2022-08-19T03:00:02.400Z,15.65
2022-08-19T03:02:31.040Z,15.90
2022-08-19T03:05:00.151Z,16.02
2022-08-19T03:07:27.881Z,15.57
2022-08-19T03:09:55.578Z,17.20
2022-08-19T03:12:23.249Z,15.63
2022-08-19T03:14:51.957Z,16.42
2022-08-19T03:17:19.625Z,15.73
2022-08-19T03:19:47.319Z,15.75
2022-08-19T03:22:16.461Z,15.43
2022-08-19T03:24:44.779Z,16.58
2022-08-19T03:27:13.284Z,15.20
2022-08-19T03:29:43.233Z,14.82
2022-08-19T03:32:31.697Z,15.40
2022-08-19T03:35:00.619Z,15.27
2022-08-19T03:37:29.762Z,16.25
2022-08-19T03:39:57.517Z,15.55
2022-08-19T03:42:38.928Z,15.38
2022-08-19T03:45:13.755Z,15.55
2022-08-19T03:47:41.401Z,16.45
2022-08-19T03:50:10.173Z,16.13
2022-08-19T03:52:40.375Z,15.77
2022-08-19T03:55:13.008Z,14.73
2022-08-19T03:57:40.637Z,15.25
2022-08-19T04:00:13.179Z,16.65
2022-08-19T04:02:41.829Z,16.63
2022-08-19T04:05:10.138Z,18.02
2022-08-19T04:07:39.143Z,17.17
2022-08-19T04:10:07.337Z,16.25
2022-08-19T04:12:38.770Z,16.75
2022-08-19T04:15:07.440Z,15.82
2022-08-19T04:17:35.148Z,17.98
2022-08-19T04:20:07.127Z,18.38
2022-08-19T04:22:34.996Z,17.40
2022-08-19T04:25:04.532Z,17.17
2022-08-19T04:27:32.253Z,16.73
2022-08-19T04:29:59.929Z,18.48
2022-08-19T04:32:27.702Z,18.50
2022-08-19T04:35:02.640Z,20.50
2022-08-19T04:37:45.408Z,19.83
2022-08-19T04:40:32.362Z,19.13
2022-08-19T04:43:00.022Z,18.52
2022-08-19T04:45:27.679Z,19.83
2022-08-19T04:48:26.317Z,19.92
2022-08-19T04:50:47.086Z,20.05
2022-08-19T04:53:14.880Z,20.02
2022-08-19T04:55:44.576Z,20.70
2022-08-19T04:58:12.364Z,20.10
2022-08-19T05:00:40.911Z,20.88
2022-08-19T05:03:09.727Z,20.02
2022-08-19T05:05:44.852Z,21.30
2022-08-19T05:08:14.236Z,20.83
2022-08-19T05:10:45.561Z,22.02
2022-08-19T05:13:13.325Z,21.90
2022-08-19T05:15:41.080Z,20.00
2022-08-19T05:18:26.231Z,20.75
2022-08-19T05:21:11.504Z,20.67
2022-08-19T05:23:39.305Z,21.48
2022-08-19T05:26:10.350Z,21.25
2022-08-19T05:28:38.029Z,21.25
2022-08-19T05:31:05.935Z,21.50
2022-08-19T05:33:33.735Z,21.45
2022-08-19T05:36:03.262Z,21.23
2022-08-19T05:38:31.074Z,20.67
2022-08-19T05:40:59.378Z,20.15
2022-08-19T05:43:28.469Z,19.52
2022-08-19T05:45:56.148Z,20.42
2022-08-19T05:48:23.916Z,20.55
2022-08-19T05:50:51.781Z,20.00
2022-08-19T05:53:20.196Z,21.40
2022-08-19T05:55:47.832Z,19.52
2022-08-19T05:58:15.737Z,19.42
2022-08-19T06:00:45.960Z,18.98
2022-08-19T06:03:13.690Z,20.83
2022-08-19T06:05:50.317Z,20.45
2022-08-19T06:08:20.723Z,20.65
2022-08-19T06:11:15.782Z,20.05
2022-08-19T06:13:43.777Z,22.38
2022-08-19T06:16:12.756Z,20.33
2022-08-19T06:18:40.493Z,22.63
2022-08-19T06:21:08.157Z,22.17
2022-08-19T06:23:35.869Z,23.88
2022-08-19T06:26:03.697Z,24.77
2022-08-19T06:28:31.446Z,24.63
2022-08-19T06:30:59.106Z,23.50
2022-08-19T06:33:28.269Z,25.13
2022-08-19T06:35:58.068Z,23.77
2022-08-19T06:38:25.826Z,24.98
2022-08-19T06:40:53.734Z,25.33
2022-08-19T06:43:21.415Z,24.17
2022-08-19T06:45:55.933Z,25.92
2022-08-19T06:48:24.478Z,26.25
2022-08-19T06:50:55.346Z,24.42
2022-08-19T06:53:23.099Z,26.55
2022-08-19T06:55:58.420Z,28.63
2022-08-19T06:58:26.082Z,30.00
2022-08-19T07:00:54.386Z,30.58
2022-08-19T07:03:22.144Z,29.85
2022-08-19T07:05:49.777Z,29.27
2022-08-19T07:08:19.280Z,31.33
2022-08-19T07:10:47.839Z,30.55
2022-08-19T07:13:15.859Z,27.92
2022-08-19T07:15:43.809Z,31.65
2022-08-19T07:18:12.026Z,29.92
2022-08-19T07:20:40.321Z,30.50
2022-08-19T07:23:10.024Z,30.73
2022-08-19T07:25:52.744Z,32.60
2022-08-19T07:28:24.103Z,30.70
2022-08-19T07:30:52.935Z,34.17
2022-08-19T07:33:20.766Z,32.38
2022-08-19T07:35:48.491Z,32.42
2022-08-19T07:38:17.367Z,32.38
2022-08-19T07:40:47.306Z,35.33
2022-08-19T07:43:17.923Z,35.13
2022-08-19T07:45:46.352Z,34.42
2022-08-19T07:48:15.402Z,34.17
2022-08-19T07:50:43.061Z,35.33
2022-08-19T07:53:10.784Z,35.65
2022-08-19T07:55:41.794Z,32.88
2022-08-19T07:58:13.543Z,35.25
2022-08-19T08:00:41.253Z,32.60
2022-08-19T08:03:09.583Z,35.60
2022-08-19T08:05:53.858Z,34.80
2022-08-19T08:08:44.382Z,33.42
2022-08-19T08:11:17.539Z,37.22
2022-08-19T08:14:01.020Z,33.15
2022-08-19T08:16:32.217Z,35.95
2022-08-19T08:19:00.325Z,33.60
2022-08-19T08:21:29.016Z,32.83
2022-08-19T08:23:57.127Z,34.63
2022-08-19T08:26:25.966Z,35.38
2022-08-19T08:28:55.374Z,37.83
2022-08-19T08:31:24.413Z,33.78
2022-08-19T08:33:52.192Z,34.72
2022-08-19T08:36:19.969Z,34.67
2022-08-19T08:38:48.000Z,34.53
2022-08-19T08:41:22.960Z,35.22
2022-08-19T08:43:53.135Z,32.63
2022-08-19T08:46:30.553Z,35.05
2022-08-19T08:49:06.668Z,33.08
2022-08-19T08:51:36.819Z,34.47
2022-08-19T08:54:07.682Z,33.80
2022-08-19T08:56:40.036Z,32.63
2022-08-19T08:59:22.859Z,33.33
2022-08-19T09:01:51.904Z,32.20
2022-08-19T09:04:20.049Z,29.50
2022-08-19T09:06:53.887Z,30.48
2022-08-19T09:09:31.963Z,28.70
2022-08-19T09:12:07.097Z,28.30
2022-08-19T09:14:50.713Z,28.73
2022-08-19T09:17:31.686Z,27.83
2022-08-19T09:20:05.667Z,28.95
2022-08-19T09:22:33.580Z,26.60
2022-08-19T09:25:01.229Z,27.10
2022-08-19T09:27:42.016Z,26.92
2022-08-19T09:30:14.013Z,26.03
2022-08-19T09:32:43.984Z,25.40
2022-08-19T09:35:12.355Z,26.13
2022-08-19T09:37:40.574Z,24.67
2022-08-19T09:40:09.637Z,24.70
2022-08-19T09:42:49.781Z,25.02
2022-08-19T09:45:22.254Z,26.23
2022-08-19T09:47:52.256Z,24.57
2022-08-19T09:52:54.149Z,27.85
2022-08-19T09:55:25.070Z,26.13
2022-08-19T09:58:00.396Z,25.88
2022-08-19T10:00:28.469Z,25.67
2022-08-19T10:02:57.500Z,27.05
2022-08-19T10:05:42.727Z,25.75
2022-08-19T10:08:13.129Z,29.35
2022-08-19T10:10:44.093Z,29.60
2022-08-19T10:13:14.580Z,30.67
2022-08-19T10:15:47.828Z,30.25
2022-08-19T10:18:19.315Z,31.98
2022-08-19T10:20:51.330Z,31.67
2022-08-19T10:23:20.813Z,31.35
2022-08-19T10:25:49.088Z,32.95
2022-08-19T10:28:19.405Z,31.75
2022-08-19T10:30:47.982Z,30.63
2022-08-19T10:33:38.592Z,32.15
2022-08-19T10:36:07.438Z,34.05
2022-08-19T10:38:36.254Z,31.05
2022-08-19T10:41:12.761Z,32.90
2022-08-19T10:43:40.980Z,33.53
2022-08-19T10:46:09.538Z,31.65
2022-08-19T10:48:46.211Z,33.17
2022-08-19T10:51:32.152Z,32.70
2022-08-19T10:54:00.473Z,31.45
2022-08-19T10:56:46.411Z,27.58
2022-08-19T10:59:15.138Z,28.80
2022-08-19T11:01:43.423Z,32.58
2022-08-19T11:04:14.523Z,32.72
2022-08-19T11:06:44.297Z,28.63
2022-08-19T11:09:12.864Z,27.05
2022-08-19T11:11:41.899Z,27.05
2022-08-19T11:14:10.394Z,27.05
2022-08-19T11:16:39.109Z,26.88
2022-08-19T11:19:08.929Z,25.88
2022-08-19T11:21:40.512Z,24.27
2022-08-19T11:24:10.675Z,25.33
2022-08-19T11:26:40.307Z,24.25
2022-08-19T11:29:12.292Z,20.35
2022-08-19T11:31:41.238Z,19.75
2022-08-19T11:34:10.901Z,18.83
2022-08-19T11:36:41.882Z,17.35
2022-08-19T11:39:14.801Z,17.15
2022-08-19T11:41:42.761Z,17.05
2022-08-19T11:44:10.610Z,16.05
2022-08-19T11:46:39.418Z,14.63
2022-08-19T11:49:13.210Z,15.20
2022-08-19T11:51:44.129Z,15.65
2022-08-19T11:54:13.732Z,15.15
2022-08-19T11:56:41.795Z,14.93
2022-08-19T11:59:14.454Z,15.23
2022-08-19T12:01:43.609Z,14.15
2022-08-19T12:04:12.207Z,14.20
2022-08-19T12:06:42.093Z,12.55
2022-08-19T12:09:12.192Z,12.55
2022-08-19T12:11:40.461Z,12.07
2022-08-19T12:14:09.221Z,11.70
2022-08-19T12:16:50.947Z,11.90
2022-08-19T12:19:22.122Z,11.25
2022-08-19T12:21:50.748Z,11.93
2022-08-19T12:24:23.916Z,12.07
2022-08-19T12:26:52.927Z,11.88
2022-08-19T12:29:23.902Z,11.50
2022-08-19T12:31:52.156Z,12.48
2022-08-19T12:34:21.022Z,12.05
2022-08-19T12:36:50.227Z,13.25
2022-08-19T12:39:19.622Z,13.32
2022-08-19T12:41:51.388Z,12.68
2022-08-19T12:44:29.344Z,12.63
2022-08-19T12:46:57.457Z,13.15
2022-08-19T12:49:53.896Z,13.57
2022-08-19T12:52:16.120Z,13.75
2022-08-19T12:54:45.467Z,13.85
2022-08-19T12:57:13.393Z,13.20
2022-08-19T12:59:42.337Z,13.20
2022-08-19T13:02:10.250Z,14.00
2022-08-19T13:04:41.521Z,13.43
2022-08-19T13:07:09.997Z,13.97
2022-08-19T13:09:37.933Z,13.90
2022-08-19T13:12:08.709Z,12.85
2022-08-19T13:14:36.961Z,12.52
2022-08-19T13:17:06.690Z,13.23
2022-08-19T13:19:34.605Z,12.20
2022-08-19T13:22:02.232Z,13.32
2022-08-19T13:24:33.483Z,12.02
2022-08-19T13:27:01.685Z,11.88
2022-08-19T13:29:48.367Z,11.93
2022-08-19T13:32:33.610Z,11.77
2022-08-19T13:35:01.857Z,11.93
2022-08-19T13:37:42.853Z,11.13
2022-08-19T13:40:13.814Z,10.80
2022-08-19T13:42:41.662Z,11.48
2022-08-19T13:45:11.551Z,11.90
2022-08-19T13:47:43.160Z,11.85
2022-08-19T13:50:11.713Z,11.38
2022-08-19T13:52:39.633Z,11.48
2022-08-19T13:55:08.284Z,11.27
2022-08-19T13:57:36.395Z,11.10
2022-08-19T14:00:12.705Z,11.40
2022-08-19T14:02:40.598Z,11.45
2022-08-19T14:05:11.281Z,11.95
2022-08-19T14:07:38.995Z,11.68
2022-08-19T14:10:08.446Z,12.85
2022-08-19T14:12:36.169Z,12.52
2022-08-19T14:15:05.270Z,12.90
2022-08-19T14:17:35.823Z,12.55
2022-08-19T14:20:10.937Z,12.13
2022-08-19T14:22:41.233Z,14.40
2022-08-19T14:25:11.873Z,14.02
2022-08-19T14:27:41.686Z,13.68
2022-08-19T14:30:11.034Z,14.10
2022-08-19T14:32:40.094Z,14.38
2022-08-19T14:35:09.236Z,14.10
2022-08-19T14:37:37.174Z,14.50
2022-08-19T14:40:14.383Z,13.63
2022-08-19T14:42:42.338Z,14.02
2022-08-19T14:45:11.106Z,13.57
2022-08-19T14:47:40.851Z,13.32
2022-08-19T14:50:18.016Z,13.02
2022-08-19T14:52:46.381Z,12.70
2022-08-19T14:55:14.048Z,13.05
2022-08-19T14:57:42.555Z,12.65
2022-08-19T15:00:13.780Z,12.45
2022-08-19T15:02:45.052Z,13.32
2022-08-19T15:05:13.177Z,13.43
2022-08-19T15:07:41.307Z,14.30
2022-08-19T15:10:11.658Z,13.95
2022-08-19T15:12:41.166Z,15.07
2022-08-19T15:15:13.573Z,15.50
2022-08-19T15:17:45.466Z,13.93
2022-08-19T15:20:18.060Z,14.48
2022-08-19T15:22:45.937Z,13.52
2022-08-19T15:25:15.779Z,13.13
2022-08-19T15:27:44.247Z,13.70
2022-08-19T15:30:13.414Z,13.25
2022-08-19T15:32:46.168Z,13.90
2022-08-19T15:35:16.264Z,12.50
2022-08-19T15:37:44.553Z,12.40
2022-08-19T15:40:13.026Z,12.10
2022-08-19T15:42:44.710Z,11.85
2022-08-19T15:45:14.787Z,11.82
2022-08-19T15:47:44.055Z,10.95
2022-08-19T15:50:13.738Z,10.93
2022-08-19T15:52:49.364Z,10.23
2022-08-19T15:55:32.653Z,10.95
2022-08-19T15:58:27.878Z,10.90
2022-08-19T16:01:13.538Z,10.38
2022-08-19T16:04:00.192Z,10.45
2022-08-19T16:06:27.913Z,11.05
2022-08-19T16:08:56.477Z,11.88
2022-08-19T16:11:29.320Z,11.30
2022-08-19T16:13:59.080Z,10.20
2022-08-19T16:16:31.086Z,10.65
2022-08-19T16:19:11.865Z,11.45
2022-08-19T16:21:41.820Z,11.18
2022-08-19T16:24:12.035Z,10.90
2022-08-19T16:26:40.276Z,11.25
2022-08-19T16:29:13.000Z,11.45
2022-08-19T16:31:41.891Z,10.85
2022-08-19T16:34:11.506Z,11.38
2022-08-19T16:36:42.042Z,10.98
2022-08-19T16:39:30.744Z,10.52
2022-08-19T16:41:58.400Z,11.50
2022-08-19T16:44:29.559Z,11.00
2022-08-19T16:46:59.541Z,10.73
2022-08-19T16:49:55.290Z,11.60
2022-08-19T16:52:17.870Z,11.63
2022-08-19T16:54:45.553Z,11.35
2022-08-19T16:57:13.923Z,10.68
2022-08-19T16:59:43.675Z,11.30
2022-08-19T17:02:16.403Z,11.10
2022-08-19T17:04:57.369Z,11.27
2022-08-19T17:07:26.910Z,12.07
2022-08-19T17:09:55.446Z,11.98
2022-08-19T17:12:23.289Z,11.45
2022-08-19T17:14:58.478Z,11.32
2022-08-19T17:17:29.127Z,11.88
2022-08-19T17:19:59.048Z,12.10
2022-08-19T17:22:26.998Z,11.80
2022-08-19T17:24:57.709Z,12.23
2022-08-19T17:27:26.653Z,11.90
2022-08-19T17:29:54.312Z,13.25
2022-08-19T17:32:25.101Z,12.90
2022-08-19T17:34:54.021Z,12.20
2022-08-19T17:37:23.278Z,12.27
2022-08-19T17:39:50.984Z,12.65
2022-08-19T17:42:18.723Z,11.38
2022-08-19T17:44:50.804Z,11.20
2022-08-19T17:47:19.399Z,12.70
2022-08-19T17:49:47.177Z,12.63
2022-08-19T17:52:14.872Z,13.20
2022-08-19T17:54:44.005Z,14.05
2022-08-19T17:57:11.755Z,15.00
2022-08-19T17:59:39.368Z,14.18
2022-08-19T18:02:10.048Z,15.80
2022-08-19T18:04:38.783Z,15.95
2022-08-19T18:07:06.618Z,15.38
2022-08-19T18:09:41.480Z,16.70
2022-08-19T18:12:11.979Z,15.90
2022-08-19T18:14:40.816Z,16.42
2022-08-19T18:17:10.752Z,16.98
2022-08-19T18:19:41.667Z,18.73
2022-08-19T18:22:11.225Z,19.55
2022-08-19T18:24:39.291Z,19.65
2022-08-19T18:27:07.275Z,19.05
2022-08-19T18:29:38.151Z,19.08
2022-08-19T18:32:06.634Z,18.20
2022-08-19T18:34:36.953Z,19.42
2022-08-19T18:37:04.871Z,18.85
2022-08-19T18:39:50.048Z,20.00
2022-08-19T18:42:36.223Z,19.00
2022-08-19T18:45:23.456Z,18.98
2022-08-19T18:48:18.447Z,17.92
2022-08-19T18:50:56.255Z,19.13
2022-08-19T18:53:24.150Z,18.90
2022-08-19T18:55:53.799Z,17.55
2022-08-19T18:58:25.906Z,19.80
2022-08-19T19:00:57.170Z,19.23
2022-08-19T19:03:25.700Z,18.50
2022-08-19T19:05:53.716Z,17.58
2022-08-19T19:08:26.911Z,17.48
2022-08-19T19:10:55.710Z,18.30
2022-08-19T19:13:23.390Z,19.23
2022-08-19T19:15:51.582Z,18.55
2022-08-19T19:18:20.578Z,18.55
2022-08-19T19:20:48.180Z,17.80
2022-08-19T19:23:15.793Z,18.42
2022-08-19T19:25:51.059Z,17.58
2022-08-19T19:28:25.618Z,17.75
2022-08-19T19:30:54.152Z,18.98
2022-08-19T19:33:23.096Z,17.88
2022-08-19T19:35:50.735Z,16.83
2022-08-19T19:38:18.594Z,17.42
2022-08-19T19:40:46.533Z,18.10
2022-08-19T19:43:18.389Z,17.23
2022-08-19T19:45:48.170Z,17.08
2022-08-19T19:48:16.550Z,16.88
2022-08-19T19:50:53.896Z,17.08
2022-08-19T19:53:24.004Z,18.85
2022-08-19T19:55:54.770Z,16.60
2022-08-19T19:58:28.361Z,17.30
2022-08-19T20:00:56.795Z,17.90
2022-08-19T20:03:24.648Z,16.42
2022-08-19T20:05:53.638Z,18.00
2022-08-19T20:08:40.348Z,16.77
2022-08-19T20:11:08.307Z,17.77
2022-08-19T20:13:36.139Z,17.92
2022-08-19T20:16:04.440Z,17.42
2022-08-19T20:18:32.127Z,18.48
2022-08-19T20:21:01.695Z,18.25
2022-08-19T20:23:29.398Z,18.75
2022-08-19T20:25:57.204Z,18.48
2022-08-19T20:28:24.899Z,17.92
2022-08-19T20:30:53.512Z,19.05
2022-08-19T20:33:21.221Z,18.60
2022-08-19T20:35:48.822Z,19.20
2022-08-19T20:38:17.830Z,18.55
2022-08-19T20:40:46.366Z,18.80
2022-08-19T20:43:15.319Z,19.02
2022-08-19T20:45:43.035Z,18.38
2022-08-19T20:48:12.416Z,18.55
2022-08-19T20:50:40.345Z,18.35
2022-08-19T20:53:13.324Z,19.45
2022-08-19T20:55:44.339Z,19.00
2022-08-19T20:58:13.519Z,19.42
2022-08-19T21:00:43.786Z,19.80
2022-08-19T21:03:11.494Z,19.45
2022-08-19T21:05:39.581Z,19.88
2022-08-19T21:08:09.052Z,20.73
2022-08-19T21:10:40.545Z,22.05
2022-08-19T21:13:11.403Z,23.23
2022-08-19T21:15:40.654Z,22.15
2022-08-19T21:18:08.364Z,22.42
2022-08-19T21:20:36.004Z,23.98
2022-08-19T21:23:04.478Z,22.63
2022-08-19T21:25:32.244Z,22.95
2022-08-19T21:28:00.144Z,23.48
2022-08-19T21:30:29.207Z,22.35
2022-08-19T21:32:57.044Z,22.85
2022-08-19T21:35:24.818Z,23.52
2022-08-19T21:37:52.516Z,22.83
2022-08-19T21:40:20.433Z,22.35
2022-08-19T21:42:48.139Z,22.60
2022-08-19T21:45:17.364Z,23.60
2022-08-19T21:47:46.381Z,23.45
2022-08-19T21:50:14.231Z,23.65
2022-08-19T21:52:42.251Z,22.70
2022-08-19T21:55:10.949Z,21.77
2022-08-19T21:57:41.491Z,22.27
2022-08-19T22:00:14.072Z,22.73
2022-08-19T22:02:42.884Z,22.30
2022-08-19T22:05:11.983Z,21.45
2022-08-19T22:07:39.621Z,20.90
2022-08-19T22:10:08.283Z,21.40
2022-08-19T22:12:37.651Z,20.85
2022-08-19T22:15:07.048Z,20.30
2022-08-19T22:17:34.680Z,18.83
2022-08-19T22:20:02.383Z,17.08
2022-08-19T22:22:33.356Z,18.40
2022-08-19T22:25:04.521Z,18.02
2022-08-19T22:27:32.133Z,16.92
2022-08-19T22:29:59.848Z,17.25
2022-08-19T22:32:28.776Z,16.58
2022-08-19T22:34:58.652Z,15.00
2022-08-19T22:37:27.033Z,16.27
2022-08-19T22:39:56.129Z,15.93
2022-08-19T22:42:25.239Z,16.85
2022-08-19T22:44:58.969Z,14.38
2022-08-19T22:47:27.155Z,14.98
2022-08-19T22:49:59.735Z,16.52
2022-08-19T22:52:26.425Z,15.27
2022-08-19T22:54:59.720Z,15.68
2022-08-19T22:57:28.229Z,15.80
2022-08-19T23:00:00.972Z,15.90
2022-08-19T23:02:31.326Z,16.25
2022-08-19T23:05:02.146Z,15.55
2022-08-19T23:07:29.860Z,16.38
2022-08-19T23:09:58.928Z,15.65
2022-08-19T23:12:30.553Z,15.95
2022-08-19T23:15:02.681Z,16.20
2022-08-19T23:19:57.840Z,15.50
2022-08-19T23:22:25.544Z,17.10
2022-08-19T23:24:56.032Z,16.15
2022-08-19T23:27:42.645Z,17.77
2022-08-19T23:30:27.064Z,16.63
2022-08-19T23:32:56.045Z,17.75
2022-08-19T23:35:23.973Z,17.15
2022-08-19T23:37:52.185Z,18.58
2022-08-19T23:40:21.954Z,18.48
2022-08-19T23:42:51.954Z,18.15
2022-08-19T23:45:23.838Z,18.52
2022-08-19T23:47:52.475Z,18.48
2022-08-19T23:50:21.831Z,19.10
2022-08-19T23:52:51.136Z,18.77
2022-08-19T23:55:20.113Z,18.80
2022-08-19T23:57:47.760Z,20.42
